Terminal Aerodrome Forecast
Issued by NWS Wilmington, NC

Home | Current Version | Previous Version | Text Only | Print | Product List | Glossary On
Versions: 1 2 3 4 5 6 7 8 9 10 11 12
495
FTUS42 KILM 221720
TAFFLO
TAF
KFLO 221720Z 2218/2318 13008KT P6SM BKN200
     FM222100 13006KT P6SM OVC100
     FM230300 VRB03KT P6SM OVC250
     FM230900 06003KT P6SM OVC100
     FM231200 06003KT 5SM BR OVC050
     FM231500 09006KT P6SM BKN250=

USA.gov is the U.S. government's official web portal to all federal, state and local government web resources and services.